createdAt,value
2018-02-09T00:01:21.883Z,14.47
2018-02-09T00:03:49.408Z,16.10
2018-02-09T00:06:16.947Z,15.70
2018-02-09T00:08:44.520Z,15.90
2018-02-09T00:11:12.085Z,15.82
2018-02-09T00:13:39.603Z,15.10
2018-02-09T00:16:07.115Z,15.20
2018-02-09T00:18:34.678Z,15.30
2018-02-09T00:21:02.221Z,14.70
2018-02-09T00:23:29.776Z,15.00
2018-02-09T00:25:57.307Z,15.05
2018-02-09T00:28:24.865Z,14.40
2018-02-09T00:30:52.414Z,14.40
2018-02-09T00:33:19.923Z,14.90
2018-02-09T00:35:47.486Z,15.23
2018-02-09T00:38:15.008Z,15.43
2018-02-09T00:40:42.586Z,15.43
2018-02-09T00:43:10.105Z,15.47
2018-02-09T00:45:37.666Z,14.68
2018-02-09T00:48:05.195Z,15.70
2018-02-09T00:50:32.753Z,15.23
2018-02-09T00:53:00.292Z,15.13
2018-02-09T00:55:27.842Z,15.53
2018-02-09T00:57:55.414Z,15.25
2018-02-09T01:00:22.942Z,15.03
2018-02-09T01:02:50.518Z,15.33
2018-02-09T01:05:18.120Z,15.73
2018-02-09T01:07:45.651Z,15.73
2018-02-09T01:10:13.195Z,14.82
2018-02-09T01:12:40.745Z,13.80
2018-02-09T01:15:08.304Z,15.95
2018-02-09T01:17:35.814Z,15.35
2018-02-09T01:20:03.805Z,15.20
2018-02-09T01:22:31.600Z,15.00
2018-02-09T01:24:59.670Z,15.00
2018-02-09T01:27:27.209Z,14.30
2018-02-09T01:29:54.720Z,14.20
2018-02-09T01:32:22.294Z,13.97
2018-02-09T01:34:49.821Z,15.40
2018-02-09T01:37:17.966Z,15.20
2018-02-09T01:39:45.929Z,14.27
2018-02-09T01:42:13.434Z,15.47
2018-02-09T01:44:40.988Z,15.40
2018-02-09T01:47:08.520Z,15.23
2018-02-09T01:49:36.033Z,15.18
2018-02-09T01:52:03.599Z,16.00
2018-02-09T01:54:31.134Z,15.50
2018-02-09T01:56:58.693Z,14.77
2018-02-09T01:59:26.513Z,16.20
2018-02-09T02:01:54.025Z,16.20
2018-02-09T02:04:21.545Z,15.87
2018-02-09T02:06:49.104Z,15.83
2018-02-09T02:09:16.662Z,16.30
2018-02-09T02:11:44.198Z,15.10
2018-02-09T02:14:11.767Z,14.83
2018-02-09T02:16:39.320Z,15.38
2018-02-09T02:19:06.837Z,16.42
2018-02-09T02:21:34.406Z,16.03
2018-02-09T02:24:01.929Z,15.33
2018-02-09T02:26:29.451Z,15.50
2018-02-09T02:28:57.007Z,16.03
2018-02-09T02:31:24.572Z,16.03
2018-02-09T02:33:52.079Z,16.10
2018-02-09T02:36:19.636Z,15.70
2018-02-09T02:38:47.158Z,16.03
2018-02-09T02:41:14.893Z,15.50
2018-02-09T02:43:42.434Z,15.63
2018-02-09T02:46:09.956Z,16.63
2018-02-09T02:48:37.527Z,15.80
2018-02-09T02:51:05.093Z,15.07
2018-02-09T02:53:32.682Z,15.88
2018-02-09T02:56:00.187Z,16.20
2018-02-09T02:58:27.753Z,16.23
2018-02-09T03:00:55.326Z,16.50
2018-02-09T03:03:22.849Z,16.07
2018-02-09T03:05:50.412Z,17.07
2018-02-09T03:08:17.969Z,15.97
2018-02-09T03:10:45.538Z,17.02
2018-02-09T03:13:13.099Z,15.83
2018-02-09T03:15:40.658Z,15.53
2018-02-09T03:18:08.220Z,15.75
2018-02-09T03:20:35.728Z,15.90
2018-02-09T03:23:03.244Z,15.88
2018-02-09T03:25:30.823Z,16.10
2018-02-09T03:27:58.956Z,16.10
2018-02-09T03:30:26.685Z,15.77
2018-02-09T03:32:54.228Z,15.20
2018-02-09T03:35:21.755Z,15.23
2018-02-09T03:37:49.320Z,15.87
2018-02-09T03:40:16.845Z,16.20
2018-02-09T03:42:44.367Z,16.37
2018-02-09T03:45:11.907Z,15.60
2018-02-09T03:47:39.424Z,14.55
2018-02-09T03:50:07.001Z,15.05
2018-02-09T03:52:34.530Z,16.35
2018-02-09T03:55:02.073Z,16.03
2018-02-09T03:57:29.591Z,15.73
2018-02-09T03:59:57.140Z,15.37
2018-02-09T04:02:24.688Z,16.03
2018-02-09T04:04:52.278Z,14.80
2018-02-09T04:07:19.840Z,15.47
2018-02-09T04:09:47.363Z,15.30
2018-02-09T04:12:15.096Z,15.23
2018-02-09T04:14:42.626Z,15.38
2018-02-09T04:17:10.191Z,15.20
2018-02-09T04:19:37.700Z,15.43
2018-02-09T04:22:05.231Z,16.07
2018-02-09T04:24:32.771Z,14.63
2018-02-09T04:27:00.289Z,15.87
2018-02-09T04:29:27.927Z,15.20
2018-02-09T04:31:55.449Z,16.23
2018-02-09T04:34:22.960Z,13.97
2018-02-09T04:36:50.502Z,15.03
2018-02-09T04:39:18.017Z,15.67
2018-02-09T04:41:45.533Z,15.13
2018-02-09T04:44:13.075Z,15.10
2018-02-09T04:46:40.630Z,15.10
2018-02-09T04:49:08.140Z,14.30
2018-02-09T04:51:35.690Z,15.05
2018-02-09T04:54:03.229Z,14.27
2018-02-09T04:56:30.785Z,15.03
2018-02-09T04:58:58.339Z,16.17
2018-02-09T05:01:26.764Z,14.75
2018-02-09T05:03:54.311Z,15.83
2018-02-09T05:06:21.865Z,15.00
2018-02-09T05:08:49.576Z,14.43
2018-02-09T05:11:17.113Z,15.10
2018-02-09T05:13:44.674Z,15.18
2018-02-09T05:16:12.229Z,14.70
2018-02-09T05:18:39.787Z,14.90
2018-02-09T05:21:07.319Z,14.93
2018-02-09T05:23:34.906Z,16.00
2018-02-09T05:26:02.429Z,15.00
2018-02-09T05:28:29.981Z,14.83
2018-02-09T05:30:57.547Z,15.43
2018-02-09T05:33:25.073Z,15.17
2018-02-09T05:35:52.754Z,15.63
2018-02-09T05:38:20.296Z,15.47
2018-02-09T05:40:47.911Z,15.97
2018-02-09T05:43:15.434Z,13.93
2018-02-09T05:45:43.014Z,15.30
2018-02-09T05:48:10.560Z,14.20
2018-02-09T05:50:38.092Z,14.47
2018-02-09T05:53:05.653Z,15.68
2018-02-09T05:55:33.201Z,15.27
2018-02-09T05:58:00.711Z,15.55
2018-02-09T06:00:28.278Z,15.63
2018-02-09T06:02:56.846Z,15.48
2018-02-09T06:05:24.352Z,15.07
2018-02-09T06:07:51.897Z,15.73
2018-02-09T06:10:19.413Z,14.00
2018-02-09T06:12:46.956Z,15.17
2018-02-09T06:15:14.468Z,15.00
2018-02-09T06:17:42.016Z,14.73
2018-02-09T06:20:09.531Z,15.90
2018-02-09T06:22:37.080Z,16.07
2018-02-09T06:25:04.591Z,15.30
2018-02-09T06:27:32.095Z,14.43
2018-02-09T06:29:59.645Z,15.30
2018-02-09T06:32:27.708Z,15.17
2018-02-09T06:34:55.266Z,15.43
2018-02-09T06:37:22.785Z,15.63
2018-02-09T06:39:50.333Z,15.53
2018-02-09T06:42:17.845Z,15.50
2018-02-09T06:44:45.401Z,14.30
2018-02-09T06:47:12.944Z,15.23
2018-02-09T06:49:40.470Z,15.63
2018-02-09T06:52:08.020Z,15.50
2018-02-09T06:54:35.550Z,14.80
2018-02-09T06:57:03.082Z,15.03
2018-02-09T06:59:30.658Z,16.17
2018-02-09T07:01:58.186Z,15.67
2018-02-09T07:04:25.753Z,16.08
2018-02-09T07:06:53.264Z,15.03
2018-02-09T07:09:20.772Z,15.30
2018-02-09T07:11:48.310Z,15.87
2018-02-09T07:14:15.830Z,15.35
2018-02-09T07:16:43.349Z,17.00
2018-02-09T07:19:10.900Z,15.70
2018-02-09T07:21:38.644Z,15.80
2018-02-09T07:24:06.150Z,16.43
2018-02-09T07:26:33.692Z,16.10
2018-02-09T07:29:01.244Z,16.35
2018-02-09T09:09:21.468Z,21.20
2018-02-09T09:11:49.044Z,49.10
2018-02-09T09:14:16.574Z,52.77
2018-02-09T09:16:44.117Z,51.53
2018-02-09T09:19:11.823Z,153.23
2018-02-09T09:21:39.380Z,88.83
2018-02-09T09:24:06.979Z,59.87
2018-02-09T09:26:34.520Z,124.67
2018-02-09T09:29:02.080Z,92.17
2018-02-09T09:31:29.600Z,115.20
2018-02-09T09:33:57.149Z,116.03
2018-02-09T09:36:24.697Z,93.03
2018-02-09T09:38:52.691Z,96.33
2018-02-09T09:41:20.651Z,78.77
2018-02-09T09:43:48.199Z,59.13
2018-02-09T09:46:15.730Z,48.87
2018-02-09T09:48:43.546Z,46.63
2018-02-09T09:51:11.681Z,43.53
2018-02-09T09:53:39.238Z,43.57
2018-02-09T09:56:07.201Z,65.43
2018-02-09T09:58:34.744Z,60.03
2018-02-09T10:01:02.778Z,67.27
2018-02-09T10:03:30.313Z,46.90
2018-02-09T10:05:57.892Z,39.03
2018-02-09T10:08:25.459Z,38.10
2018-02-09T10:10:53.018Z,35.90
2018-02-09T10:13:20.785Z,52.73
2018-02-09T10:15:48.354Z,76.13
2018-02-09T10:18:15.884Z,86.80
2018-02-09T10:20:43.409Z,66.30
2018-02-09T10:23:10.962Z,103.87
2018-02-09T10:25:38.512Z,68.30
2018-02-09T10:28:06.094Z,65.63
2018-02-09T10:30:33.738Z,46.03
2018-02-09T10:33:01.310Z,39.93
2018-02-09T10:35:28.815Z,38.23
2018-02-09T10:37:56.558Z,34.70
2018-02-09T10:40:24.104Z,35.20
2018-02-09T10:42:51.626Z,36.73
2018-02-09T10:45:19.187Z,29.93
2018-02-09T10:47:46.709Z,42.27
2018-02-09T10:50:14.271Z,42.77
2018-02-09T10:52:41.794Z,44.23
2018-02-09T10:55:09.327Z,44.33
2018-02-09T10:57:36.922Z,39.87
2018-02-09T11:00:04.526Z,38.53
2018-02-09T11:02:32.050Z,67.00
2018-02-09T11:04:59.599Z,77.60
2018-02-09T11:07:27.690Z,71.10
2018-02-09T11:09:55.221Z,52.10
2018-02-09T11:12:22.809Z,49.43
2018-02-09T11:14:50.308Z,45.37
2018-02-09T11:17:17.852Z,49.23
2018-02-09T11:19:45.394Z,52.23
2018-02-09T11:22:12.951Z,39.90
2018-02-09T11:24:40.472Z,34.00
2018-02-09T11:27:08.044Z,30.63
2018-02-09T11:29:35.559Z,30.73
2018-02-09T11:32:03.059Z,31.50
2018-02-09T11:34:30.625Z,32.20
2018-02-09T11:36:58.147Z,34.97
2018-02-09T11:39:25.676Z,36.13
2018-02-09T11:41:53.237Z,35.67
2018-02-09T11:44:20.971Z,34.23
2018-02-09T11:46:48.517Z,31.07
2018-02-09T11:49:16.038Z,30.83
2018-02-09T11:51:43.605Z,30.47
2018-02-09T11:54:11.111Z,40.17
2018-02-09T11:56:38.948Z,42.63
2018-02-09T11:59:06.514Z,35.03
2018-02-09T12:01:34.022Z,38.83
2018-02-09T12:04:01.574Z,49.53
2018-02-09T12:06:29.115Z,40.20
2018-02-09T12:08:56.659Z,34.23
2018-02-09T12:11:24.244Z,29.80
2018-02-09T12:13:51.758Z,32.90
2018-02-09T12:16:19.353Z,39.73
2018-02-09T12:18:46.864Z,81.00
2018-02-09T12:21:14.441Z,147.57
2018-02-09T12:23:42.012Z,130.73
2018-02-09T12:26:09.580Z,126.10
2018-02-09T12:28:37.123Z,92.47
2018-02-09T12:31:04.976Z,59.87
2018-02-09T12:33:32.502Z,51.93
2018-02-09T12:36:00.352Z,39.47
2018-02-09T12:38:28.175Z,37.27
2018-02-09T12:40:56.159Z,23.97
2018-02-09T12:43:24.081Z,26.77
2018-02-09T12:45:51.652Z,24.63
2018-02-09T12:48:19.181Z,30.97
2018-02-09T12:50:46.983Z,29.37
2018-02-09T12:53:15.830Z,27.33
2018-02-09T12:55:43.690Z,42.63
2018-02-09T12:58:11.592Z,28.97
2018-02-09T13:00:39.139Z,40.57
2018-02-09T13:03:06.872Z,43.10
2018-02-09T13:05:34.781Z,29.40
2018-02-09T13:08:02.327Z,27.37
2018-02-09T13:10:29.894Z,24.47
2018-02-09T13:13:05.167Z,24.00
2018-02-09T13:15:33.604Z,22.93
2018-02-09T13:18:01.134Z,22.17
2018-02-09T13:20:28.694Z,21.73
2018-02-09T13:23:07.955Z,21.10
2018-02-09T13:25:35.620Z,20.33
2018-02-09T13:28:03.143Z,20.80
2018-02-09T13:30:30.730Z,21.60
2018-02-09T13:33:10.108Z,19.20
2018-02-09T13:35:37.646Z,19.43
2018-02-09T13:38:05.202Z,20.23
2018-02-09T13:40:32.817Z,20.80
2018-02-09T13:43:01.179Z,20.17
2018-02-09T13:45:28.735Z,20.17
2018-02-09T13:47:56.269Z,20.23
2018-02-09T13:50:23.860Z,21.20
2018-02-09T13:52:51.383Z,21.87
2018-02-09T13:55:18.964Z,27.37
2018-02-09T13:57:46.474Z,23.33
2018-02-09T14:00:14.039Z,20.83
2018-02-09T14:02:41.570Z,42.17
2018-02-09T14:05:09.135Z,27.73
2018-02-09T14:07:36.742Z,23.90
2018-02-09T14:10:04.258Z,21.27
2018-02-09T14:12:31.804Z,22.37
2018-02-09T14:14:59.389Z,21.10
2018-02-09T14:17:26.981Z,20.33
2018-02-09T14:19:54.566Z,17.93
2018-02-09T14:22:22.221Z,19.03
2018-02-09T14:24:49.778Z,17.93
2018-02-09T14:27:17.604Z,19.60
2018-02-09T14:29:45.498Z,18.60
2018-02-09T14:32:13.029Z,18.13
2018-02-09T14:34:40.604Z,17.40
2018-02-09T14:37:08.150Z,17.27
2018-02-09T14:43:22.495Z,15.23
2018-02-09T14:45:50.030Z,16.57
2018-02-09T14:48:17.634Z,16.00
2018-02-09T14:50:45.146Z,15.87
2018-02-09T14:53:12.676Z,16.93
2018-02-09T14:55:40.203Z,15.60
2018-02-09T14:58:07.723Z,16.10
2018-02-09T15:00:35.286Z,16.03
2018-02-09T15:03:02.838Z,16.47
2018-02-09T15:05:30.431Z,16.60
2018-02-09T15:07:57.949Z,18.57
2018-02-09T15:10:25.471Z,16.20
2018-02-09T15:12:52.972Z,15.47
2018-02-09T15:15:20.515Z,15.67
2018-02-09T15:17:48.015Z,13.73
2018-02-09T15:20:15.798Z,13.93
2018-02-09T15:22:43.299Z,14.03
2018-02-09T15:25:10.852Z,13.87
2018-02-09T15:27:38.375Z,14.17
2018-02-09T15:30:05.884Z,13.20
2018-02-09T15:32:33.435Z,14.13
2018-02-09T15:35:00.995Z,13.30
2018-02-09T15:37:28.602Z,13.13
2018-02-09T15:39:56.100Z,12.30
2018-02-09T15:42:23.645Z,12.10
2018-02-09T15:44:51.150Z,13.10
2018-02-09T15:47:18.704Z,13.30
2018-02-09T15:49:46.270Z,11.90
2018-02-09T15:52:13.799Z,12.77
2018-02-09T15:54:41.322Z,12.37
2018-02-09T15:57:08.869Z,11.87
2018-02-09T15:59:36.423Z,12.63
2018-02-09T16:02:04.024Z,12.20
2018-02-09T16:04:31.529Z,11.87
2018-02-09T16:06:59.069Z,11.77
2018-02-09T16:09:26.585Z,11.13
2018-02-09T16:11:54.133Z,11.20
2018-02-09T16:14:21.684Z,11.30
2018-02-09T16:16:49.195Z,11.50
2018-02-09T16:19:17.142Z,12.13
2018-02-09T16:21:44.678Z,11.20
2018-02-09T16:24:12.211Z,10.17
2018-02-09T16:26:39.752Z,11.43
2018-02-09T16:29:07.270Z,10.77
2018-02-09T16:31:34.802Z,11.30
2018-02-09T16:34:02.354Z,10.27
2018-02-09T16:36:29.869Z,10.53
2018-02-09T16:38:57.416Z,9.83
2018-02-09T16:41:24.937Z,9.93
2018-02-09T16:43:52.471Z,10.20
2018-02-09T16:46:20.017Z,9.73
2018-02-09T16:48:47.515Z,9.90
2018-02-09T16:51:15.059Z,9.53
2018-02-09T16:53:42.814Z,9.73
2018-02-09T16:56:10.668Z,9.27
2018-02-09T16:58:38.230Z,9.77
2018-02-09T17:01:05.763Z,8.67
2018-02-09T17:03:33.397Z,9.20
2018-02-09T17:06:01.095Z,9.00
2018-02-09T17:08:29.659Z,8.83
2018-02-09T17:10:57.702Z,9.37
2018-02-09T17:13:26.345Z,9.47
2018-02-09T17:15:53.965Z,9.10
2018-02-09T17:18:21.497Z,8.97
2018-02-09T17:20:49.057Z,9.13
2018-02-09T17:23:16.610Z,9.13
2018-02-09T17:25:44.207Z,9.73
2018-02-09T17:28:11.732Z,10.10
2018-02-09T17:30:39.303Z,9.67
2018-02-09T17:33:11.578Z,10.07
2018-02-09T17:35:40.956Z,10.60
2018-02-09T17:38:08.665Z,10.87
2018-02-09T17:40:36.455Z,10.20
2018-02-09T17:43:03.991Z,9.33
2018-02-09T17:45:31.539Z,9.53
2018-02-09T17:47:59.041Z,8.77
2018-02-09T17:50:26.577Z,9.50
2018-02-09T17:52:54.148Z,9.40
2018-02-09T17:55:21.680Z,8.80
2018-02-09T17:57:49.229Z,8.47
2018-02-09T18:00:16.736Z,8.40
2018-02-09T18:02:44.263Z,8.37
2018-02-09T18:05:11.874Z,8.37
2018-02-09T18:07:39.808Z,7.93
2018-02-09T18:10:07.338Z,8.33
2018-02-09T18:12:34.892Z,8.30
2018-02-09T18:15:02.396Z,7.87
2018-02-09T18:17:30.856Z,7.93
2018-02-09T18:19:58.730Z,7.93
2018-02-09T18:22:26.273Z,7.27
2018-02-09T18:24:53.831Z,7.80
2018-02-09T18:27:21.705Z,7.67
2018-02-09T18:29:49.208Z,7.70
2018-02-09T18:32:16.752Z,7.27
2018-02-09T18:34:44.270Z,7.53
2018-02-09T18:37:11.944Z,7.07
2018-02-09T18:39:39.525Z,7.27
2018-02-09T18:42:07.061Z,8.20
2018-02-09T18:44:34.599Z,7.80
2018-02-09T18:47:02.138Z,8.00
2018-02-09T18:49:29.658Z,7.00
2018-02-09T18:51:57.167Z,7.40
2018-02-09T18:54:24.729Z,7.80
2018-02-09T18:56:52.225Z,7.17
2018-02-09T18:59:19.809Z,8.00
2018-02-09T19:01:47.317Z,7.13
2018-02-09T19:04:14.860Z,7.30
2018-02-09T19:06:42.367Z,7.33
2018-02-09T19:09:10.152Z,7.10
2018-02-09T19:11:38.074Z,7.37
2018-02-09T19:14:06.444Z,7.60
2018-02-09T19:16:34.442Z,7.87
2018-02-09T19:19:03.028Z,8.93
2018-02-09T19:21:30.966Z,8.13
2018-02-09T19:23:58.846Z,7.40
2018-02-09T19:26:26.658Z,7.17
2018-02-09T19:28:54.501Z,8.33
2018-02-09T19:31:22.428Z,7.70
2018-02-09T19:33:50.555Z,8.33
2018-02-09T19:36:18.380Z,7.90
2018-02-09T19:38:46.205Z,7.70
2018-02-09T19:41:14.240Z,6.83
2018-02-09T19:43:42.210Z,8.00
2018-02-09T19:46:10.139Z,7.70
2018-02-09T19:48:38.106Z,7.37
2018-02-09T19:51:06.014Z,8.20
2018-02-09T19:53:33.907Z,7.47
2018-02-09T19:56:02.005Z,8.00
2018-02-09T19:58:29.554Z,7.43
2018-02-09T20:00:57.498Z,7.13
2018-02-09T20:03:25.226Z,7.37
2018-02-09T20:05:53.143Z,7.77
2018-02-09T20:08:21.067Z,6.87
2018-02-09T20:10:48.674Z,7.53
2018-02-09T20:13:16.639Z,7.63
2018-02-09T20:15:44.573Z,7.60
2018-02-09T20:18:12.355Z,6.93
2018-02-09T20:20:40.358Z,7.50
2018-02-09T20:23:08.564Z,7.57
2018-02-09T20:25:36.721Z,7.40
2018-02-09T20:28:04.633Z,7.37
2018-02-09T20:30:32.569Z,7.60
2018-02-09T20:33:00.754Z,7.43
2018-02-09T20:35:29.025Z,6.97
2018-02-09T20:37:57.513Z,7.43
2018-02-09T20:40:25.198Z,6.83
2018-02-09T20:42:52.696Z,6.73
2018-02-09T20:45:20.254Z,8.13
2018-02-09T20:47:47.766Z,8.00
2018-02-09T20:50:15.279Z,8.00
2018-02-09T20:52:42.855Z,8.93
2018-02-09T20:55:10.808Z,7.87
2018-02-09T20:57:38.369Z,7.83
2018-02-09T21:00:05.880Z,7.80
2018-02-09T21:02:33.833Z,7.40
2018-02-09T21:05:01.774Z,8.03
2018-02-09T21:07:29.764Z,7.90
2018-02-09T21:09:57.637Z,6.23
2018-02-09T21:12:25.696Z,7.17
2018-02-09T21:14:53.698Z,7.13
2018-02-09T21:17:21.628Z,7.17
2018-02-09T21:19:49.653Z,6.93
2018-02-09T21:22:18.088Z,7.00
2018-02-09T21:24:45.603Z,7.57
2018-02-09T21:27:13.280Z,6.77
2018-02-09T21:29:40.846Z,6.87
2018-02-09T21:32:08.381Z,7.00
2018-02-09T21:34:35.912Z,6.87
2018-02-09T21:37:03.415Z,6.80
2018-02-09T21:39:30.918Z,6.37
2018-02-09T21:41:58.473Z,6.70
2018-02-09T21:44:25.998Z,6.90
2018-02-09T21:46:53.544Z,5.97
2018-02-09T21:49:21.079Z,6.27
2018-02-09T21:51:48.596Z,6.63
2018-02-09T21:54:16.174Z,7.13
2018-02-09T21:56:43.716Z,6.53
2018-02-09T21:59:11.230Z,5.77
2018-02-09T22:01:38.737Z,6.60
2018-02-09T22:04:06.277Z,6.10
2018-02-09T22:06:33.918Z,6.20
2018-02-09T22:09:01.503Z,6.27
2018-02-09T22:11:29.000Z,5.30
2018-02-09T22:13:56.526Z,6.33
2018-02-09T22:16:24.075Z,6.27
2018-02-09T22:18:51.824Z,6.20
2018-02-09T22:21:19.376Z,6.37
2018-02-09T22:23:46.867Z,6.63
2018-02-09T22:26:14.430Z,5.97
2018-02-09T22:28:41.967Z,5.87
2018-02-09T22:31:09.503Z,6.03
2018-02-09T22:33:37.051Z,6.80
2018-02-09T22:36:04.606Z,6.03
2018-02-09T22:38:32.249Z,6.23
2018-02-09T22:41:00.109Z,6.70
2018-02-09T22:43:27.834Z,6.17
2018-02-09T22:45:55.383Z,6.17
2018-02-09T22:48:22.957Z,6.00
2018-02-09T22:50:50.515Z,6.63
2018-02-09T22:53:18.119Z,6.00
2018-02-09T22:55:45.624Z,5.90
2018-02-09T22:58:13.209Z,6.10
2018-02-09T23:00:40.808Z,5.67
2018-02-09T23:03:08.365Z,5.97
2018-02-09T23:05:35.892Z,6.53
2018-02-09T23:08:03.533Z,5.97
2018-02-09T23:10:31.154Z,5.87
2018-02-09T23:12:58.675Z,6.57
2018-02-09T23:15:26.317Z,6.20
2018-02-09T23:17:53.832Z,6.53
2018-02-09T23:20:21.390Z,6.13
2018-02-09T23:22:48.917Z,6.33
2018-02-09T23:25:16.500Z,6.27
2018-02-09T23:27:44.051Z,6.10
2018-02-09T23:30:11.597Z,5.97
2018-02-09T23:32:39.163Z,6.10
2018-02-09T23:35:06.770Z,6.07
2018-02-09T23:37:34.359Z,6.53
2018-02-09T23:40:01.987Z,7.07
2018-02-09T23:42:29.579Z,6.87
2018-02-09T23:44:57.166Z,6.80
2018-02-09T23:47:25.003Z,6.73
2018-02-09T23:49:52.626Z,6.37
2018-02-09T23:52:20.755Z,6.20
2018-02-09T23:54:49.287Z,7.10
2018-02-09T23:57:17.098Z,7.10
2018-02-09T23:59:44.715Z,6.63
